Главная страница
METAR-TAF:

METAR-TAF

Аэропорты :

Сан-Хуан, Пуэрто-Рико, США

широта: 18-27-24N, долгота: 066-05-54W, высота над уровнем моря: 3 м

Текущие метеонаблюдения

Эта сводка был подготовлена 30 минут назад, в 11:50 UTC
Ветер 5 Узел от южный
Температура 27°C
Влажность 84%
Давление 1015 hPa
Видимость: 16.1 км
Отдельные облака на высоте 3000 фута
Рассеянная облачность на высоте 7500 фута

METAR: TJIG 261150Z 17005KT 10SM SCT030 BKN075 27/24 A2998

Время: 08:20 (12:20 UTC)


TAF: отсутствует

Метеонаблюдения и прогнозы для более 4000 аэропортов (сводки METAR и TAF).

Имеющиеся станции представлены на карте желтыми и красными точками.

Чтобы увидеть название станции, наведите на нее мышь.

Затем щелкните, чтобы увидеть метеонаблюдения и метеопрогнозы.

Управление картой: чтобы увеличить масштаб, щелкните зеленые кнопки с черным крестиком; чтобы уменьшить масштаб, щелкните зеленую кнопку с тире; для просмотра соседних карт щелкайте зеленые стрелки.


METAR-TAF: